sensor_id;sensor_type;location;lat;lon;timestamp;temperature;humidity
75899;DHT22;64576;50.460;4.866;2023-08-21T00:00:46;18.74;89.84
75899;DHT22;64576;50.460;4.866;2023-08-21T00:03:12;18.53;90.57
75899;DHT22;64576;50.460;4.866;2023-08-21T00:05:37;18.39;91.28
75899;DHT22;64576;50.460;4.866;2023-08-21T00:08:02;18.52;91.18
75899;DHT22;64576;50.460;4.866;2023-08-21T00:10:29;18.48;91.55
75899;DHT22;64576;50.460;4.866;2023-08-21T00:12:55;18.35;91.87
75899;DHT22;64576;50.460;4.866;2023-08-21T00:15:21;18.53;91.34
75899;DHT22;64576;50.460;4.866;2023-08-21T00:17:47;18.51;91.66
75899;DHT22;64576;50.460;4.866;2023-08-21T00:20:12;18.52;91.30
75899;DHT22;64576;50.460;4.866;2023-08-21T00:22:38;18.35;91.90
75899;DHT22;64576;50.460;4.866;2023-08-21T00:25:03;18.19;92.72
75899;DHT22;64576;50.460;4.866;2023-08-21T00:27:29;18.14;93.18
75899;DHT22;64576;50.460;4.866;2023-08-21T00:29:55;18.00;93.55
75899;DHT22;64576;50.460;4.866;2023-08-21T00:32:20;18.00;93.39
75899;DHT22;64576;50.460;4.866;2023-08-21T00:34:46;17.90;93.93
75899;DHT22;64576;50.460;4.866;2023-08-21T00:37:11;17.94;93.84
75899;DHT22;64576;50.460;4.866;2023-08-21T00:39:36;17.94;93.44
75899;DHT22;64576;50.460;4.866;2023-08-21T00:42:02;17.98;93.62
75899;DHT22;64576;50.460;4.866;2023-08-21T00:44:27;18.19;92.85
75899;DHT22;64576;50.460;4.866;2023-08-21T00:46:53;17.93;93.82
75899;DHT22;64576;50.460;4.866;2023-08-21T00:49:19;17.86;94.17
75899;DHT22;64576;50.460;4.866;2023-08-21T00:51:44;17.80;94.35
75899;DHT22;64576;50.460;4.866;2023-08-21T00:54:10;17.73;94.43
75899;DHT22;64576;50.460;4.866;2023-08-21T00:56:36;17.63;94.88
75899;DHT22;64576;50.460;4.866;2023-08-21T00:59:01;17.62;95.26
75899;DHT22;64576;50.460;4.866;2023-08-21T01:01:28;17.47;95.80
75899;DHT22;64576;50.460;4.866;2023-08-21T01:03:53;17.45;95.90
75899;DHT22;64576;50.460;4.866;2023-08-21T01:06:19;17.53;95.44
75899;DHT22;64576;50.460;4.866;2023-08-21T01:11:58;17.62;95.44
75899;DHT22;64576;50.460;4.866;2023-08-21T01:14:48;17.65;94.87
75899;DHT22;64576;50.460;4.866;2023-08-21T01:17:17;17.56;95.02
75899;DHT22;64576;50.460;4.866;2023-08-21T01:19:47;17.45;95.55
75899;DHT22;64576;50.460;4.866;2023-08-21T01:22:13;17.42;95.93
75899;DHT22;64576;50.460;4.866;2023-08-21T01:24:38;17.40;95.64
75899;DHT22;64576;50.460;4.866;2023-08-21T01:27:04;17.42;96.11
75899;DHT22;64576;50.460;4.866;2023-08-21T01:29:29;17.39;96.03
75899;DHT22;64576;50.460;4.866;2023-08-21T01:32:04;17.31;96.23
75899;DHT22;64576;50.460;4.866;2023-08-21T01:34:32;17.34;95.95
75899;DHT22;64576;50.460;4.866;2023-08-21T01:36:59;17.28;96.14
75899;DHT22;64576;50.460;4.866;2023-08-21T01:39:25;17.21;96.65
75899;DHT22;64576;50.460;4.866;2023-08-21T01:41:50;17.17;96.43
75899;DHT22;64576;50.460;4.866;2023-08-21T01:44:16;17.28;96.08
75899;DHT22;64576;50.460;4.866;2023-08-21T01:46:41;17.36;95.82
75899;DHT22;64576;50.460;4.866;2023-08-21T01:49:06;17.29;96.02
75899;DHT22;64576;50.460;4.866;2023-08-21T01:51:32;17.36;95.93
75899;DHT22;64576;50.460;4.866;2023-08-21T01:53:57;17.50;95.44
75899;DHT22;64576;50.460;4.866;2023-08-21T01:56:23;17.47;95.58
75899;DHT22;64576;50.460;4.866;2023-08-21T01:58:48;17.39;95.39
75899;DHT22;64576;50.460;4.866;2023-08-21T02:01:14;17.40;95.07
75899;DHT22;64576;50.460;4.866;2023-08-21T02:03:40;17.46;95.59
75899;DHT22;64576;50.460;4.866;2023-08-21T02:06:06;17.53;95.21
75899;DHT22;64576;50.460;4.866;2023-08-21T02:08:31;17.50;94.99
75899;DHT22;64576;50.460;4.866;2023-08-21T02:11:00;17.57;94.91
75899;DHT22;64576;50.460;4.866;2023-08-21T02:13:26;17.46;95.44
75899;DHT22;64576;50.460;4.866;2023-08-21T02:15:51;17.49;95.17
75899;DHT22;64576;50.460;4.866;2023-08-21T02:18:17;17.50;95.04
75899;DHT22;64576;50.460;4.866;2023-08-21T02:20:43;17.50;94.94
75899;DHT22;64576;50.460;4.866;2023-08-21T02:23:08;17.52;94.89
75899;DHT22;64576;50.460;4.866;2023-08-21T02:25:33;17.55;94.75
75899;DHT22;64576;50.460;4.866;2023-08-21T02:27:59;17.67;94.08
75899;DHT22;64576;50.460;4.866;2023-08-21T02:30:25;17.76;94.06
75899;DHT22;64576;50.460;4.866;2023-08-21T02:32:53;17.66;93.80
75899;DHT22;64576;50.460;4.866;2023-08-21T02:35:20;17.61;95.25
75899;DHT22;64576;50.460;4.866;2023-08-21T02:37:45;17.61;95.45
75899;DHT22;64576;50.460;4.866;2023-08-21T02:40:11;17.43;96.01
75899;DHT22;64576;50.460;4.866;2023-08-21T02:42:36;17.34;96.53
75899;DHT22;64576;50.460;4.866;2023-08-21T02:45:02;17.26;97.28
75899;DHT22;64576;50.460;4.866;2023-08-21T02:47:34;17.19;97.78
75899;DHT22;64576;50.460;4.866;2023-08-21T02:50:00;17.11;98.13
75899;DHT22;64576;50.460;4.866;2023-08-21T02:52:25;17.04;98.93
75899;DHT22;64576;50.460;4.866;2023-08-21T02:54:50;17.01;99.16
75899;DHT22;64576;50.460;4.866;2023-08-21T02:57:16;16.95;99.16
75899;DHT22;64576;50.460;4.866;2023-08-21T02:59:41;16.85;99.42
75899;DHT22;64576;50.460;4.866;2023-08-21T03:02:06;16.91;99.27
75899;DHT22;64576;50.460;4.866;2023-08-21T03:04:32;16.87;99.26
75899;DHT22;64576;50.460;4.866;2023-08-21T03:06:57;16.81;99.12
75899;DHT22;64576;50.460;4.866;2023-08-21T03:09:23;16.77;99.43
75899;DHT22;64576;50.460;4.866;2023-08-21T03:11:48;16.74;99.64
75899;DHT22;64576;50.460;4.866;2023-08-21T03:14:13;16.73;99.40
75899;DHT22;64576;50.460;4.866;2023-08-21T03:16:39;16.79;98.84
75899;DHT22;64576;50.460;4.866;2023-08-21T03:19:05;16.79;98.97
75899;DHT22;64576;50.460;4.866;2023-08-21T03:21:30;16.63;99.43
75899;DHT22;64576;50.460;4.866;2023-08-21T03:23:58;16.63;99.61
75899;DHT22;64576;50.460;4.866;2023-08-21T03:26:25;16.53;99.42
75899;DHT22;64576;50.460;4.866;2023-08-21T03:28:51;16.60;99.18
75899;DHT22;64576;50.460;4.866;2023-08-21T03:31:16;16.66;98.98
75899;DHT22;64576;50.460;4.866;2023-08-21T03:33:42;16.55;99.44
75899;DHT22;64576;50.460;4.866;2023-08-21T03:36:07;16.48;99.73
75899;DHT22;64576;50.460;4.866;2023-08-21T03:38:32;16.49;99.69
75899;DHT22;64576;50.460;4.866;2023-08-21T03:40:59;16.43;99.99
75899;DHT22;64576;50.460;4.866;2023-08-21T03:43:24;16.42;99.80
75899;DHT22;64576;50.460;4.866;2023-08-21T03:45:50;16.38;99.99
75899;DHT22;64576;50.460;4.866;2023-08-21T03:48:15;16.35;99.99
75899;DHT22;64576;50.460;4.866;2023-08-21T03:50:40;16.46;99.67
75899;DHT22;64576;50.460;4.866;2023-08-21T03:53:06;16.38;99.89
75899;DHT22;64576;50.460;4.866;2023-08-21T03:55:31;16.28;99.99
75899;DHT22;64576;50.460;4.866;2023-08-21T03:57:57;16.22;99.99
75899;DHT22;64576;50.460;4.866;2023-08-21T04:00:22;16.23;99.99
75899;DHT22;64576;50.460;4.866;2023-08-21T04:02:47;16.14;99.99
75899;DHT22;64576;50.460;4.866;2023-08-21T04:05:13;16.09;99.99
75899;DHT22;64576;50.460;4.866;2023-08-21T04:07:38;16.08;99.99
75899;DHT22;64576;50.460;4.866;2023-08-21T04:10:05;16.09;99.99
75899;DHT22;64576;50.460;4.866;2023-08-21T04:12:30;16.14;99.99
75899;DHT22;64576;50.460;4.866;2023-08-21T04:14:56;16.02;99.99
75899;DHT22;64576;50.460;4.866;2023-08-21T04:17:22;16.08;99.99
75899;DHT22;64576;50.460;4.866;2023-08-21T04:19:47;16.04;99.99
75899;DHT22;64576;50.460;4.866;2023-08-21T04:22:13;15.95;99.99
75899;DHT22;64576;50.460;4.866;2023-08-21T04:24:39;15.94;99.99
75899;DHT22;64576;50.460;4.866;2023-08-21T04:27:05;15.88;99.99
75899;DHT22;64576;50.460;4.866;2023-08-21T04:29:30;15.91;99.99
75899;DHT22;64576;50.460;4.866;2023-08-21T04:31:56;15.93;99.99
75899;DHT22;64576;50.460;4.866;2023-08-21T04:34:21;16.08;99.99
75899;DHT22;64576;50.460;4.866;2023-08-21T04:36:46;15.97;99.99
75899;DHT22;64576;50.460;4.866;2023-08-21T04:39:12;16.04;99.99
75899;DHT22;64576;50.460;4.866;2023-08-21T04:41:39;15.97;99.99
75899;DHT22;64576;50.460;4.866;2023-08-21T04:44:05;16.04;99.85
75899;DHT22;64576;50.460;4.866;2023-08-21T04:46:30;16.02;99.99
75899;DHT22;64576;50.460;4.866;2023-08-21T04:48:55;15.98;99.99
75899;DHT22;64576;50.460;4.866;2023-08-21T04:51:21;16.02;99.99
75899;DHT22;64576;50.460;4.866;2023-08-21T04:53:46;15.98;99.99
75899;DHT22;64576;50.460;4.866;2023-08-21T04:56:11;16.00;99.99
75899;DHT22;64576;50.460;4.866;2023-08-21T04:58:37;16.09;99.99
75899;DHT22;64576;50.460;4.866;2023-08-21T05:01:04;16.09;99.99
75899;DHT22;64576;50.460;4.866;2023-08-21T05:03:30;16.15;99.99
75899;DHT22;64576;50.460;4.866;2023-08-21T05:05:56;16.21;99.59
75899;DHT22;64576;50.460;4.866;2023-08-21T05:08:25;16.50;99.35
75899;DHT22;64576;50.460;4.866;2023-08-21T05:10:58;16.76;98.00
75899;DHT22;64576;50.460;4.866;2023-08-21T05:13:24;17.04;97.12
75899;DHT22;64576;50.460;4.866;2023-08-21T05:15:53;17.24;96.32
75899;DHT22;64576;50.460;4.866;2023-08-21T05:18:23;17.38;95.30
75899;DHT22;64576;50.460;4.866;2023-08-21T05:20:49;17.74;93.90
75899;DHT22;64576;50.460;4.866;2023-08-21T05:23:15;17.94;92.90
75899;DHT22;64576;50.460;4.866;2023-08-21T05:25:40;18.18;92.16
75899;DHT22;64576;50.460;4.866;2023-08-21T05:28:06;18.48;90.90
75899;DHT22;64576;50.460;4.866;2023-08-21T05:30:32;18.53;90.63
75899;DHT22;64576;50.460;4.866;2023-08-21T05:32:58;18.96;89.38
75899;DHT22;64576;50.460;4.866;2023-08-21T05:35:23;19.17;87.68
75899;DHT22;64576;50.460;4.866;2023-08-21T05:37:48;19.45;86.99
75899;DHT22;64576;50.460;4.866;2023-08-21T05:40:14;19.56;86.28
75899;DHT22;64576;50.460;4.866;2023-08-21T05:42:39;19.63;85.87
75899;DHT22;64576;50.460;4.866;2023-08-21T05:45:05;20.01;84.98
75899;DHT22;64576;50.460;4.866;2023-08-21T05:47:31;20.09;84.41
75899;DHT22;64576;50.460;4.866;2023-08-21T05:49:56;20.35;83.50
75899;DHT22;64576;50.460;4.866;2023-08-21T05:52:22;20.65;82.68
75899;DHT22;64576;50.460;4.866;2023-08-21T05:54:48;20.62;82.52
75899;DHT22;64576;50.460;4.866;2023-08-21T05:57:13;20.92;81.39
75899;DHT22;64576;50.460;4.866;2023-08-21T05:59:44;21.10;80.75
75899;DHT22;64576;50.460;4.866;2023-08-21T06:02:10;20.93;80.83
75899;DHT22;64576;50.460;4.866;2023-08-21T06:04:37;21.19;80.60
75899;DHT22;64576;50.460;4.866;2023-08-21T06:07:02;21.19;80.85
75899;DHT22;64576;50.460;4.866;2023-08-21T06:09:29;21.47;80.04
75899;DHT22;64576;50.460;4.866;2023-08-21T06:11:55;21.71;79.47
75899;DHT22;64576;50.460;4.866;2023-08-21T06:14:20;21.85;78.79
75899;DHT22;64576;50.460;4.866;2023-08-21T06:16:53;21.90;78.56
75899;DHT22;64576;50.460;4.866;2023-08-21T06:19:19;21.40;79.55
75899;DHT22;64576;50.460;4.866;2023-08-21T06:21:44;21.92;78.48
75899;DHT22;64576;50.460;4.866;2023-08-21T06:24:10;21.88;78.51
75899;DHT22;64576;50.460;4.866;2023-08-21T06:26:35;22.03;78.42
75899;DHT22;64576;50.460;4.866;2023-08-21T06:29:01;22.33;77.57
75899;DHT22;64576;50.460;4.866;2023-08-21T06:31:26;22.57;76.81
75899;DHT22;64576;50.460;4.866;2023-08-21T06:33:51;22.84;76.21
75899;DHT22;64576;50.460;4.866;2023-08-21T06:36:17;23.06;75.62
75899;DHT22;64576;50.460;4.866;2023-08-21T06:38:42;22.55;76.44
75899;DHT22;64576;50.460;4.866;2023-08-21T06:41:09;23.05;75.02
75899;DHT22;64576;50.460;4.866;2023-08-21T06:43:34;22.75;75.20
75899;DHT22;64576;50.460;4.866;2023-08-21T06:46:01;22.69;75.14
75899;DHT22;64576;50.460;4.866;2023-08-21T06:48:26;23.68;73.26
75899;DHT22;64576;50.460;4.866;2023-08-21T06:50:52;22.84;74.66
75899;DHT22;64576;50.460;4.866;2023-08-21T06:53:17;23.40;73.80
75899;DHT22;64576;50.460;4.866;2023-08-21T06:55:45;22.73;76.08
75899;DHT22;64576;50.460;4.866;2023-08-21T06:58:10;23.51;73.92
75899;DHT22;64576;50.460;4.866;2023-08-21T07:00:36;24.01;72.30
75899;DHT22;64576;50.460;4.866;2023-08-21T07:03:01;24.46;71.16
75899;DHT22;64576;50.460;4.866;2023-08-21T07:05:28;24.18;71.76
75899;DHT22;64576;50.460;4.866;2023-08-21T07:07:53;24.41;69.89
75899;DHT22;64576;50.460;4.866;2023-08-21T07:10:20;24.33;69.72
75899;DHT22;64576;50.460;4.866;2023-08-21T07:12:46;24.01;69.96
75899;DHT22;64576;50.460;4.866;2023-08-21T07:15:11;23.97;69.38
75899;DHT22;64576;50.460;4.866;2023-08-21T07:17:36;24.22;70.13
75899;DHT22;64576;50.460;4.866;2023-08-21T07:20:02;24.04;70.81
75899;DHT22;64576;50.460;4.866;2023-08-21T07:22:29;23.67;70.00
75899;DHT22;64576;50.460;4.866;2023-08-21T07:24:54;24.18;70.21
75899;DHT22;64576;50.460;4.866;2023-08-21T07:27:20;23.85;71.29
75899;DHT22;64576;50.460;4.866;2023-08-21T07:29:45;25.02;68.11
75899;DHT22;64576;50.460;4.866;2023-08-21T07:32:11;24.95;68.04
75899;DHT22;64576;50.460;4.866;2023-08-21T07:34:36;26.06;65.67
75899;DHT22;64576;50.460;4.866;2023-08-21T07:37:01;25.86;66.10
75899;DHT22;64576;50.460;4.866;2023-08-21T07:39:27;25.39;65.69
75899;DHT22;64576;50.460;4.866;2023-08-21T07:41:52;25.59;65.96
75899;DHT22;64576;50.460;4.866;2023-08-21T07:44:18;26.05;64.66
75899;DHT22;64576;50.460;4.866;2023-08-21T07:46:44;25.04;66.38
75899;DHT22;64576;50.460;4.866;2023-08-21T07:49:10;24.80;67.29
75899;DHT22;64576;50.460;4.866;2023-08-21T07:51:35;24.91;66.61
75899;DHT22;64576;50.460;4.866;2023-08-21T07:54:01;25.91;65.79
75899;DHT22;64576;50.460;4.866;2023-08-21T07:56:26;26.60;62.60
75899;DHT22;64576;50.460;4.866;2023-08-21T07:58:52;26.83;62.60
75899;DHT22;64576;50.460;4.866;2023-08-21T08:01:17;26.32;63.76
75899;DHT22;64576;50.460;4.866;2023-08-21T08:03:43;26.93;61.83
75899;DHT22;64576;50.460;4.866;2023-08-21T08:06:08;26.09;64.92
75899;DHT22;64576;50.460;4.866;2023-08-21T08:08:34;26.96;62.60
75899;DHT22;64576;50.460;4.866;2023-08-21T08:11:03;26.56;63.61
75899;DHT22;64576;50.460;4.866;2023-08-21T08:13:29;26.32;64.54
75899;DHT22;64576;50.460;4.866;2023-08-21T08:15:54;27.48;61.63
75899;DHT22;64576;50.460;4.866;2023-08-21T08:18:20;27.32;60.96
75899;DHT22;64576;50.460;4.866;2023-08-21T08:20:45;27.86;60.54
75899;DHT22;64576;50.460;4.866;2023-08-21T08:23:11;27.99;60.11
75899;DHT22;64576;50.460;4.866;2023-08-21T08:25:36;28.01;58.03
75899;DHT22;64576;50.460;4.866;2023-08-21T08:28:02;28.28;59.41
75899;DHT22;64576;50.460;4.866;2023-08-21T08:30:27;27.97;58.15
75899;DHT22;64576;50.460;4.866;2023-08-21T08:32:53;27.43;59.87
75899;DHT22;64576;50.460;4.866;2023-08-21T08:35:19;27.76;56.97
75899;DHT22;64576;50.460;4.866;2023-08-21T08:37:44;27.46;58.74
75899;DHT22;64576;50.460;4.866;2023-08-21T08:40:12;29.02;56.50
75899;DHT22;64576;50.460;4.866;2023-08-21T08:42:38;29.03;55.58
75899;DHT22;64576;50.460;4.866;2023-08-21T08:45:04;26.93;58.81
75899;DHT22;64576;50.460;4.866;2023-08-21T08:47:34;27.99;59.08
75899;DHT22;64576;50.460;4.866;2023-08-21T08:50:07;28.63;57.17
75899;DHT22;64576;50.460;4.866;2023-08-21T08:52:38;28.63;56.69
75899;DHT22;64576;50.460;4.866;2023-08-21T08:55:04;29.20;54.24
75899;DHT22;64576;50.460;4.866;2023-08-21T08:57:32;29.21;56.23
75899;DHT22;64576;50.460;4.866;2023-08-21T08:59:58;28.79;55.75
75899;DHT22;64576;50.460;4.866;2023-08-21T09:02:25;29.83;53.74
75899;DHT22;64576;50.460;4.866;2023-08-21T09:04:51;28.62;55.96
75899;DHT22;64576;50.460;4.866;2023-08-21T09:07:17;28.47;56.48
75899;DHT22;64576;50.460;4.866;2023-08-21T09:09:48;27.72;58.07
75899;DHT22;64576;50.460;4.866;2023-08-21T09:12:16;28.99;56.23
75899;DHT22;64576;50.460;4.866;2023-08-21T09:14:42;29.57;55.08
75899;DHT22;64576;50.460;4.866;2023-08-21T09:17:08;29.18;54.77
75899;DHT22;64576;50.460;4.866;2023-08-21T09:19:34;30.24;54.58
75899;DHT22;64576;50.460;4.866;2023-08-21T09:22:10;30.48;54.07
75899;DHT22;64576;50.460;4.866;2023-08-21T09:24:37;30.96;52.20
75899;DHT22;64576;50.460;4.866;2023-08-21T09:27:03;31.30;51.06
75899;DHT22;64576;50.460;4.866;2023-08-21T09:29:39;30.99;52.40
75899;DHT22;64576;50.460;4.866;2023-08-21T09:32:07;31.37;51.75
75899;DHT22;64576;50.460;4.866;2023-08-21T09:34:36;30.38;51.33
75899;DHT22;64576;50.460;4.866;2023-08-21T09:37:06;29.92;52.61
75899;DHT22;64576;50.460;4.866;2023-08-21T09:39:36;31.77;50.10
75899;DHT22;64576;50.460;4.866;2023-08-21T09:42:05;31.89;49.38
75899;DHT22;64576;50.460;4.866;2023-08-21T09:44:41;31.05;51.80
75899;DHT22;64576;50.460;4.866;2023-08-21T09:47:11;29.45;53.78
75899;DHT22;64576;50.460;4.866;2023-08-21T09:49:38;30.02;53.00
75899;DHT22;64576;50.460;4.866;2023-08-21T09:52:08;32.05;49.30
75899;DHT22;64576;50.460;4.866;2023-08-21T09:54:38;32.53;48.43
75899;DHT22;64576;50.460;4.866;2023-08-21T09:57:04;31.46;50.88
75899;DHT22;64576;50.460;4.866;2023-08-21T09:59:32;32.67;49.38
75899;DHT22;64576;50.460;4.866;2023-08-21T10:01:59;32.64;47.81
75899;DHT22;64576;50.460;4.866;2023-08-21T10:04:28;32.05;48.44
75899;DHT22;64576;50.460;4.866;2023-08-21T10:06:56;32.08;48.43
75899;DHT22;64576;50.460;4.866;2023-08-21T10:09:23;32.19;48.99
75899;DHT22;64576;50.460;4.866;2023-08-21T10:11:48;32.02;49.16
75899;DHT22;64576;50.460;4.866;2023-08-21T10:14:15;31.09;50.44
75899;DHT22;64576;50.460;4.866;2023-08-21T10:16:41;32.19;48.67
75899;DHT22;64576;50.460;4.866;2023-08-21T10:19:06;34.11;46.58
75899;DHT22;64576;50.460;4.866;2023-08-21T10:21:36;32.71;46.72
75899;DHT22;64576;50.460;4.866;2023-08-21T10:24:05;34.15;45.83
75899;DHT22;64576;50.460;4.866;2023-08-21T10:26:30;34.00;45.55
75899;DHT22;64576;50.460;4.866;2023-08-21T10:29:01;33.25;45.51
75899;DHT22;64576;50.460;4.866;2023-08-21T10:31:36;34.32;44.72
75899;DHT22;64576;50.460;4.866;2023-08-21T10:34:06;34.28;44.13
75899;DHT22;64576;50.460;4.866;2023-08-21T10:39:04;33.73;47.39
75899;DHT22;64576;50.460;4.866;2023-08-21T10:41:29;34.75;45.97
75899;DHT22;64576;50.460;4.866;2023-08-21T10:43:55;34.63;45.33
75899;DHT22;64576;50.460;4.866;2023-08-21T10:46:20;33.94;46.02
75899;DHT22;64576;50.460;4.866;2023-08-21T10:48:46;35.68;44.17
75899;DHT22;64576;50.460;4.866;2023-08-21T10:51:11;35.96;43.42
75899;DHT22;64576;50.460;4.866;2023-08-21T10:53:38;35.85;42.75
75899;DHT22;64576;50.460;4.866;2023-08-21T10:56:06;35.02;43.51
75899;DHT22;64576;50.460;4.866;2023-08-21T10:58:41;35.06;43.63
75899;DHT22;64576;50.460;4.866;2023-08-21T11:01:06;36.53;42.06
75899;DHT22;64576;50.460;4.866;2023-08-21T11:03:32;34.56;43.73
75899;DHT22;64576;50.460;4.866;2023-08-21T11:06:04;35.44;44.10
75899;DHT22;64576;50.460;4.866;2023-08-21T11:08:32;35.98;42.90
75899;DHT22;64576;50.460;4.866;2023-08-21T11:10:57;34.65;45.69
75899;DHT22;64576;50.460;4.866;2023-08-21T11:13:24;36.40;41.65
75899;DHT22;64576;50.460;4.866;2023-08-21T11:16:00;35.48;43.83
75899;DHT22;64576;50.460;4.866;2023-08-21T11:18:37;35.03;43.95
75899;DHT22;64576;50.460;4.866;2023-08-21T11:21:07;32.95;46.53
75899;DHT22;64576;50.460;4.866;2023-08-21T11:23:41;34.65;44.63
75899;DHT22;64576;50.460;4.866;2023-08-21T11:26:10;36.03;42.43
75899;DHT22;64576;50.460;4.866;2023-08-21T11:28:35;31.57;49.11
75899;DHT22;64576;50.460;4.866;2023-08-21T11:31:01;29.27;53.69
75899;DHT22;64576;50.460;4.866;2023-08-21T11:33:27;30.09;52.56
75899;DHT22;64576;50.460;4.866;2023-08-21T11:35:53;29.98;53.56
75899;DHT22;64576;50.460;4.866;2023-08-21T11:38:21;29.57;53.50
75899;DHT22;64576;50.460;4.866;2023-08-21T11:43:21;28.47;55.93
75899;DHT22;64576;50.460;4.866;2023-08-21T11:45:47;30.03;53.71
75899;DHT22;64576;50.460;4.866;2023-08-21T11:48:12;30.51;50.73
75899;DHT22;64576;50.460;4.866;2023-08-21T11:50:39;31.73;48.39
75899;DHT22;64576;50.460;4.866;2023-08-21T11:53:05;34.32;45.31
75899;DHT22;64576;50.460;4.866;2023-08-21T11:55:31;35.48;42.93
75899;DHT22;64576;50.460;4.866;2023-08-21T11:57:56;36.02;40.69
75899;DHT22;64576;50.460;4.866;2023-08-21T12:00:27;37.73;39.04
75899;DHT22;64576;50.460;4.866;2023-08-21T12:03:00;37.90;38.11
75899;DHT22;64576;50.460;4.866;2023-08-21T12:05:27;38.66;37.94
75899;DHT22;64576;50.460;4.866;2023-08-21T12:07:54;39.42;37.43
75899;DHT22;64576;50.460;4.866;2023-08-21T12:10:27;37.30;38.91
75899;DHT22;64576;50.460;4.866;2023-08-21T12:12:53;38.72;38.46
75899;DHT22;64576;50.460;4.866;2023-08-21T12:15:19;36.16;41.67
75899;DHT22;64576;50.460;4.866;2023-08-21T12:17:44;33.04;44.63
75899;DHT22;64576;50.460;4.866;2023-08-21T12:20:10;32.39;47.93
75899;DHT22;64576;50.460;4.866;2023-08-21T12:22:39;30.36;49.43
75899;DHT22;64576;50.460;4.866;2023-08-21T12:25:05;29.43;51.30
75899;DHT22;64576;50.460;4.866;2023-08-21T12:27:31;29.65;50.77
75899;DHT22;64576;50.460;4.866;2023-08-21T12:29:56;30.41;50.32
75899;DHT22;64576;50.460;4.866;2023-08-21T12:32:22;32.05;47.09
75899;DHT22;64576;50.460;4.866;2023-08-21T12:34:47;33.62;43.87
75899;DHT22;64576;50.460;4.866;2023-08-21T12:37:13;35.08;41.63
75899;DHT22;64576;50.460;4.866;2023-08-21T12:39:38;36.05;40.55
75899;DHT22;64576;50.460;4.866;2023-08-21T12:42:04;38.29;38.16
75899;DHT22;64576;50.460;4.866;2023-08-21T12:44:29;37.18;39.68
75899;DHT22;64576;50.460;4.866;2023-08-21T12:46:55;38.91;37.35
75899;DHT22;64576;50.460;4.866;2023-08-21T12:49:20;36.64;40.19
75899;DHT22;64576;50.460;4.866;2023-08-21T12:51:46;32.35;45.17
75899;DHT22;64576;50.460;4.866;2023-08-21T12:54:11;31.67;46.91
75899;DHT22;64576;50.460;4.866;2023-08-21T12:56:36;30.72;48.43
75899;DHT22;64576;50.460;4.866;2023-08-21T12:59:02;30.99;49.65
75899;DHT22;64576;50.460;4.866;2023-08-21T13:01:28;30.16;49.71
75899;DHT22;64576;50.460;4.866;2023-08-21T13:03:53;29.37;50.77
75899;DHT22;64576;50.460;4.866;2023-08-21T13:06:19;29.20;51.63
75899;DHT22;64576;50.460;4.866;2023-08-21T13:08:44;30.27;49.36
75899;DHT22;64576;50.460;4.866;2023-08-21T13:11:10;32.49;45.36
75899;DHT22;64576;50.460;4.866;2023-08-21T13:13:35;33.38;43.26
75899;DHT22;64576;50.460;4.866;2023-08-21T13:16:01;33.92;43.11
75899;DHT22;64576;50.460;4.866;2023-08-21T13:18:27;36.13;40.19
75899;DHT22;64576;50.460;4.866;2023-08-21T13:20:52;36.95;38.44
75899;DHT22;64576;50.460;4.866;2023-08-21T13:23:18;37.62;37.95
75899;DHT22;64576;50.460;4.866;2023-08-21T13:25:43;39.28;36.05
75899;DHT22;64576;50.460;4.866;2023-08-21T13:28:09;38.86;36.78
75899;DHT22;64576;50.460;4.866;2023-08-21T13:30:36;38.46;36.56
75899;DHT22;64576;50.460;4.866;2023-08-21T13:33:01;38.62;36.88
75899;DHT22;64576;50.460;4.866;2023-08-21T13:35:26;39.52;37.33
75899;DHT22;64576;50.460;4.866;2023-08-21T13:37:52;40.10;35.91
75899;DHT22;64576;50.460;4.866;2023-08-21T13:40:17;40.28;35.61
75899;DHT22;64576;50.460;4.866;2023-08-21T13:42:44;39.35;36.51
75899;DHT22;64576;50.460;4.866;2023-08-21T13:45:16;37.27;37.17
75899;DHT22;64576;50.460;4.866;2023-08-21T13:47:43;37.97;36.81
75899;DHT22;64576;50.460;4.866;2023-08-21T13:50:09;36.40;38.35
75899;DHT22;64576;50.460;4.866;2023-08-21T13:52:36;38.32;36.75
75899;DHT22;64576;50.460;4.866;2023-08-21T13:55:02;39.17;35.75
75899;DHT22;64576;50.460;4.866;2023-08-21T13:57:30;39.18;36.15
75899;DHT22;64576;50.460;4.866;2023-08-21T13:59:56;38.93;37.03
75899;DHT22;64576;50.460;4.866;2023-08-21T14:02:22;38.60;37.65
75899;DHT22;64576;50.460;4.866;2023-08-21T14:04:48;39.55;35.71
75899;DHT22;64576;50.460;4.866;2023-08-21T14:07:14;38.42;36.98
75899;DHT22;64576;50.460;4.866;2023-08-21T14:09:40;39.34;36.25
75899;DHT22;64576;50.460;4.866;2023-08-21T14:12:05;38.26;36.70
75899;DHT22;64576;50.460;4.866;2023-08-21T14:14:33;38.90;36.58
75899;DHT22;64576;50.460;4.866;2023-08-21T14:16:58;38.39;36.58
75899;DHT22;64576;50.460;4.866;2023-08-21T14:19:24;38.29;37.58
75899;DHT22;64576;50.460;4.866;2023-08-21T14:21:49;38.21;36.95
75899;DHT22;64576;50.460;4.866;2023-08-21T14:24:15;36.81;38.81
75899;DHT22;64576;50.460;4.866;2023-08-21T14:26:40;39.24;36.90
75899;DHT22;64576;50.460;4.866;2023-08-21T14:29:05;37.40;37.91
75899;DHT22;64576;50.460;4.866;2023-08-21T14:31:31;38.40;36.66
75899;DHT22;64576;50.460;4.866;2023-08-21T14:33:56;38.58;36.28
75899;DHT22;64576;50.460;4.866;2023-08-21T14:36:23;39.07;35.96
75899;DHT22;64576;50.460;4.866;2023-08-21T14:38:49;37.56;37.08
75899;DHT22;64576;50.460;4.866;2023-08-21T14:41:16;38.25;37.09
75899;DHT22;64576;50.460;4.866;2023-08-21T14:43:41;36.89;38.45
75899;DHT22;64576;50.460;4.866;2023-08-21T14:46:07;37.06;38.68
75899;DHT22;64576;50.460;4.866;2023-08-21T14:48:32;37.32;37.99
75899;DHT22;64576;50.460;4.866;2023-08-21T14:50:57;37.53;38.14
75899;DHT22;64576;50.460;4.866;2023-08-21T14:53:23;36.10;39.84
75899;DHT22;64576;50.460;4.866;2023-08-21T14:55:48;36.41;39.31
75899;DHT22;64576;50.460;4.866;2023-08-21T14:58:14;34.93;42.22
75899;DHT22;64576;50.460;4.866;2023-08-21T15:00:39;34.89;41.15
75899;DHT22;64576;50.460;4.866;2023-08-21T15:03:05;34.78;41.76
75899;DHT22;64576;50.460;4.866;2023-08-21T15:05:30;36.00;40.48
75899;DHT22;64576;50.460;4.866;2023-08-21T15:07:55;36.07;39.88
75899;DHT22;64576;50.460;4.866;2023-08-21T15:10:21;36.30;40.10
75899;DHT22;64576;50.460;4.866;2023-08-21T15:12:46;36.15;39.42
75899;DHT22;64576;50.460;4.866;2023-08-21T15:15:12;35.58;39.63
75899;DHT22;64576;50.460;4.866;2023-08-21T15:17:38;36.03;39.92
75899;DHT22;64576;50.460;4.866;2023-08-21T15:20:04;35.75;40.13
75899;DHT22;64576;50.460;4.866;2023-08-21T15:22:33;35.77;40.95
75899;DHT22;64576;50.460;4.866;2023-08-21T15:24:58;34.45;42.45
75899;DHT22;64576;50.460;4.866;2023-08-21T15:27:24;35.45;40.94
75899;DHT22;64576;50.460;4.866;2023-08-21T15:29:50;34.70;41.69
75899;DHT22;64576;50.460;4.866;2023-08-21T15:32:15;32.91;44.57